Time;durP1;ratioP1;P1;durP2;ratioP2;P2;SDS_P1;SDS_P2;PMS_P1;PMS_P2;Temp;Humidity;BMP_temperature;BMP_pressure;BME280_temperature;BME280_humidity;BME280_pressure;Samples;Min_cycle;Max_cycle;Signal;HPM_P1;HPM_P2
2023/10/09 00:01:44;;;;;;;56.17;19.90;;;13.80;99.90;;;;;;5017343;28;20026;-62
2023/10/09 00:04:11;;;;;;;44.50;18.40;;;13.80;99.90;;;;;;5020840;28;20159;-60
2023/10/09 00:06:37;;;;;;;43.13;18.90;;;13.80;99.90;;;;;;5020549;28;20479;-62
2023/10/09 00:09:30;;;;;;;47.58;20.25;;;13.80;99.90;;;;;;5021595;28;20025;-61
2023/10/09 00:12:00;;;;;;;51.90;21.30;;;13.70;99.90;;;;;;5019720;28;20116;-60
2023/10/09 00:14:38;;;;;;;42.83;18.80;;;13.70;99.90;;;;;;5015161;28;20025;-62
2023/10/09 00:19:37;;;;;;;46.80;19.38;;;13.70;99.90;;;;;;5022078;28;20033;-61
2023/10/09 00:22:11;;;;;;;46.88;20.75;;;13.60;99.90;;;;;;5016693;28;20034;-61
2023/10/09 00:24:46;;;;;;;53.30;21.27;;;13.70;99.90;;;;;;5023445;28;20949;-62
2023/10/09 00:27:12;;;;;;;48.97;19.58;;;13.60;99.90;;;;;;5014907;28;20038;-62
2023/10/09 00:29:44;;;;;;;48.20;18.55;;;13.60;99.90;;;;;;5018556;28;20029;-61
2023/10/09 00:32:26;;;;;;;44.40;20.00;;;13.60;99.90;;;;;;5024282;28;20033;-59
2023/10/09 00:34:52;;;;;;;47.95;19.63;;;13.60;99.90;;;;;;5017025;28;20697;-60
2023/10/09 00:37:22;;;;;;;49.13;19.48;;;13.70;99.90;;;;;;5019762;28;20052;-61
2023/10/09 00:39:49;;;;;;;44.85;19.42;;;13.70;99.90;;;;;;5012083;28;20030;-63
2023/10/09 00:42:25;;;;;;;43.40;17.88;;;13.70;99.90;;;;;;5019837;28;20032;-61
2023/10/09 00:44:51;;;;;;;45.85;18.30;;;13.70;99.90;;;;;;5018977;28;20026;-62
2023/10/09 00:47:20;;;;;;;43.05;18.58;;;13.70;99.90;;;;;;5023397;28;20071;-60
2023/10/09 00:50:03;;;;;;;40.25;17.33;;;13.70;99.90;;;;;;5018752;28;20026;-61
2023/10/09 00:52:43;;;;;;;42.80;16.80;;;13.70;99.90;;;;;;5019058;28;20034;-60
2023/10/09 00:55:14;;;;;;;32.95;15.27;;;13.70;99.90;;;;;;5017897;28;20439;-61
2023/10/09 00:57:47;;;;;;;40.67;18.27;;;13.70;99.90;;;;;;5018690;28;20072;-61
2023/10/09 01:00:31;;;;;;;33.17;16.92;;;13.70;99.90;;;;;;5012579;28;20033;-60
2023/10/09 01:05:52;;;;;;;46.15;16.88;;;13.50;99.90;;;;;;5018185;28;20051;-61
2023/10/09 01:08:26;;;;;;;45.47;17.00;;;13.40;99.90;;;;;;5019360;28;20024;-61
2023/10/09 01:11:47;;;;;;;33.50;16.58;;;13.40;99.90;;;;;;5018747;28;20113;-62
2023/10/09 01:16:19;;;;;;;41.22;16.73;;;13.30;99.90;;;;;;5021350;28;20037;-60
2023/10/09 01:18:48;;;;;;;40.67;16.70;;;13.20;99.90;;;;;;5014905;28;20345;-61
2023/10/09 01:21:14;;;;;;;46.17;15.35;;;13.20;99.90;;;;;;5028174;28;20028;-62
2023/10/09 01:23:58;;;;;;;36.72;14.70;;;13.30;99.90;;;;;;5015838;28;20014;-61
2023/10/09 01:26:26;;;;;;;44.17;15.32;;;13.30;99.90;;;;;;5020014;28;20086;-62
2023/10/09 01:28:57;;;;;;;31.05;13.98;;;13.40;99.90;;;;;;5024963;28;20029;-61
2023/10/09 01:31:25;;;;;;;31.85;15.25;;;13.40;99.90;;;;;;5013584;28;20045;-62
2023/10/09 01:33:53;;;;;;;32.38;15.82;;;13.30;99.90;;;;;;5022957;28;20032;-62
2023/10/09 01:36:31;;;;;;;32.70;14.68;;;13.30;99.90;;;;;;5020080;28;20035;-60
2023/10/09 01:38:59;;;;;;;43.25;16.63;;;13.20;99.90;;;;;;5017754;28;20488;-60
2023/10/09 01:41:25;;;;;;;39.70;14.80;;;13.30;99.90;;;;;;5024299;28;20025;-62
2023/10/09 01:43:56;;;;;;;38.78;15.73;;;13.20;99.90;;;;;;5026394;28;20045;-58
2023/10/09 01:46:22;;;;;;;36.65;17.05;;;13.20;99.90;;;;;;5018927;28;20053;-62
2023/10/09 01:48:48;;;;;;;37.53;16.85;;;13.10;99.90;;;;;;5031744;28;20057;-61
2023/10/09 01:51:17;;;;;;;37.67;16.95;;;13.00;99.90;;;;;;5027350;28;20168;-61
2023/10/09 01:53:43;;;;;;;38.00;16.98;;;13.00;99.90;;;;;;5028743;28;20040;-59
2023/10/09 01:56:15;;;;;;;35.15;15.10;;;13.10;99.90;;;;;;5024488;28;20026;-60
2023/10/09 01:58:41;;;;;;;34.10;15.82;;;13.20;99.90;;;;;;5030820;28;20073;-62
2023/10/09 02:01:07;;;;;;;30.35;14.05;;;13.20;99.90;;;;;;5016797;28;20034;-61
2023/10/09 02:03:36;;;;;;;38.10;14.77;;;13.30;99.90;;;;;;5035653;28;20532;-62
2023/10/09 02:06:17;;;;;;;29.92;15.70;;;13.30;99.90;;;;;;5023455;28;20045;-60
2023/10/09 02:08:49;;;;;;;35.40;14.82;;;13.20;99.90;;;;;;5022115;28;20049;-61
2023/10/09 02:11:24;;;;;;;31.27;14.05;;;13.20;99.90;;;;;;5022860;28;20072;-61
2023/10/09 02:13:53;;;;;;;35.72;15.35;;;13.20;99.90;;;;;;5027043;28;20025;-62
2023/10/09 02:16:28;;;;;;;31.48;14.25;;;13.20;99.90;;;;;;5021080;28;20092;-60
2023/10/09 02:18:55;;;;;;;36.80;14.15;;;13.20;99.90;;;;;;5019849;28;20044;-62
2023/10/09 02:21:34;;;;;;;30.83;14.88;;;13.20;99.90;;;;;;5028626;28;20020;-61
2023/10/09 02:24:26;;;;;;;34.58;15.25;;;13.20;99.90;;;;;;5021847;28;20026;-60
2023/10/09 02:29:23;;;;;;;36.92;14.95;;;13.20;99.90;;;;;;5025849;28;20502;-60
2023/10/09 02:31:51;;;;;;;28.60;14.27;;;13.20;99.90;;;;;;5021094;28;20107;-60
2023/10/09 02:34:22;;;;;;;28.67;14.63;;;13.20;99.90;;;;;;5026544;28;20026;-61
2023/10/09 02:36:57;;;;;;;38.00;13.85;;;13.20;99.90;;;;;;5037260;28;20057;-59
2023/10/09 02:39:24;;;;;;;29.10;12.77;;;13.30;99.90;;;;;;5029735;28;20029;-62
2023/10/09 02:42:00;;;;;;;30.88;13.35;;;13.30;99.90;;;;;;5030167;28;20080;-61
2023/10/09 02:44:26;;;;;;;34.10;14.00;;;13.30;99.90;;;;;;5022579;28;20434;-62
2023/10/09 02:46:51;;;;;;;33.72;14.93;;;13.30;99.90;;;;;;5021010;28;20044;-60
2023/10/09 02:49:18;;;;;;;32.03;14.20;;;13.30;99.90;;;;;;5026219;28;20268;-62
2023/10/09 02:51:44;;;;;;;34.53;13.80;;;13.20;99.90;;;;;;5024214;28;20042;-61
2023/10/09 02:54:26;;;;;;;32.50;14.30;;;13.30;99.90;;;;;;5030636;28;20480;-61
2023/10/09 02:56:58;;;;;;;36.13;13.13;;;13.30;99.90;;;;;;5017730;28;20121;-61
2023/10/09 02:59:24;;;;;;;31.02;13.70;;;13.20;99.90;;;;;;5030269;28;20025;-59
2023/10/09 03:01:52;;;;;;;31.67;14.27;;;13.20;99.90;;;;;;5017693;28;20026;-60
2023/10/09 03:04:19;;;;;;;30.35;13.75;;;13.20;99.90;;;;;;5026094;28;20036;-59
2023/10/09 03:06:50;;;;;;;33.65;14.63;;;13.10;99.90;;;;;;5021983;28;20114;-59
2023/10/09 03:09:27;;;;;;;38.28;14.55;;;13.10;99.90;;;;;;5028740;28;20040;-61
2023/10/09 03:12:03;;;;;;;29.90;13.88;;;13.10;99.90;;;;;;5021715;28;20391;-61
2023/10/09 03:14:35;;;;;;;36.95;14.63;;;13.20;99.90;;;;;;5031987;28;20029;-61
2023/10/09 03:17:01;;;;;;;30.13;14.43;;;13.20;99.90;;;;;;5016864;28;20038;-61
2023/10/09 03:19:37;;;;;;;32.65;13.45;;;13.20;99.90;;;;;;5035705;28;20033;-60
2023/10/09 03:22:03;;;;;;;30.00;13.55;;;13.20;99.90;;;;;;5034174;28;20033;-61
2023/10/09 03:24:30;;;;;;;30.02;13.82;;;13.30;99.90;;;;;;5024147;28;20014;-63
2023/10/09 03:26:56;;;;;;;39.22;14.20;;;13.30;99.90;;;;;;5016199;28;20485;-60
2023/10/09 03:29:22;;;;;;;28.65;13.38;;;13.20;99.90;;;;;;5027080;28;20088;-59
2023/10/09 03:31:50;;;;;;;32.50;14.57;;;13.30;99.90;;;;;;5020618;28;20029;-59
2023/10/09 03:34:16;;;;;;;38.08;17.75;;;13.30;99.90;;;;;;5021486;28;20037;-59
2023/10/09 03:36:43;;;;;;;35.17;14.77;;;13.30;99.90;;;;;;5026078;28;20029;-60
2023/10/09 03:39:54;;;;;;;33.58;14.55;;;13.30;99.90;;;;;;5021558;28;20036;-57
2023/10/09 03:41:58;;;;;;;27.35;13.48;;;13.30;99.90;;;;;;5022950;28;20381;-58
2023/10/09 03:44:27;;;;;;;25.85;13.10;;;13.30;99.90;;;;;;5018656;28;20017;-59
2023/10/09 03:46:53;;;;;;;27.55;12.88;;;13.40;99.90;;;;;;5019541;28;20045;-61
2023/10/09 03:49:24;;;;;;;30.30;13.30;;;13.40;99.90;;;;;;5019399;28;20064;-61
2023/10/09 03:51:51;;;;;;;29.50;12.10;;;13.30;99.90;;;;;;5024894;28;20032;-59
2023/10/09 03:54:20;;;;;;;34.40;12.93;;;13.30;99.90;;;;;;5023972;28;20116;-59
2023/10/09 03:56:49;;;;;;;33.13;12.73;;;13.30;99.90;;;;;;5023325;28;20084;-61
2023/10/09 03:59:16;;;;;;;31.63;12.55;;;13.30;99.90;;;;;;5024774;28;20046;-60
2023/10/09 04:01:43;;;;;;;22.52;11.68;;;13.40;99.90;;;;;;5025668;28;20037;-60
2023/10/09 04:04:13;;;;;;;29.63;12.70;;;13.40;99.90;;;;;;5018095;28;20345;-60
2023/10/09 04:06:39;;;;;;;30.67;13.73;;;13.40;99.90;;;;;;5030342;28;20017;-59
2023/10/09 04:14:57;;;;;;;26.63;12.25;;;13.30;99.90;;;;;;5018262;28;20040;-61
2023/10/09 04:20:14;;;;;;;25.58;12.68;;;13.30;99.90;;;;;;5027664;28;20030;-61
2023/10/09 04:22:39;;;;;;;25.25;12.32;;;13.30;99.90;;;;;;5016425;28;20084;-61
2023/10/09 04:25:14;;;;;;;28.48;11.65;;;13.30;99.90;;;;;;5024093;28;20034;-60
2023/10/09 04:27:41;;;;;;;21.73;10.82;;;13.40;99.90;;;;;;5019481;28;20021;-61
2023/10/09 04:30:07;;;;;;;31.08;13.75;;;13.50;99.90;;;;;;5019297;28;20048;-59
2023/10/09 04:32:34;;;;;;;30.27;12.73;;;13.40;99.90;;;;;;5025165;28;20021;-63
2023/10/09 04:37:52;;;;;;;;;;;13.50;99.90;;;;;;5020373;28;20052;-61
2023/10/09 04:43:09;;;;;;;28.58;13.27;;;13.50;99.90;;;;;;5026948;28;20077;-60
2023/10/09 04:48:10;;;;;;;27.67;12.13;;;13.60;99.90;;;;;;5030190;28;20050;-60
2023/10/09 04:50:45;;;;;;;27.63;12.45;;;13.50;99.90;;;;;;5020083;28;20373;-61
2023/10/09 04:55:44;;;;;;;32.03;12.63;;;13.60;99.90;;;;;;5023449;28;20515;-60
2023/10/09 04:58:13;;;;;;;32.45;12.80;;;13.60;99.90;;;;;;5028396;28;20048;-59
2023/10/09 05:03:11;;;;;;;28.38;13.10;;;13.70;99.90;;;;;;5023236;28;20060;-62
2023/10/09 05:08:19;;;;;;;28.83;12.60;;;13.70;99.90;;;;;;5026384;28;20033;-61
2023/10/09 05:16:18;;;;;;;29.55;13.55;;;13.80;99.90;;;;;;5017107;28;20052;-61
2023/10/09 05:18:45;;;;;;;27.20;13.27;;;13.90;99.90;;;;;;5023605;28;20037;-60
2023/10/09 05:31:57;;;;;;;31.65;12.98;;;13.90;99.90;;;;;;5019054;28;20034;-62
2023/10/09 05:34:33;;;;;;;25.85;13.00;;;13.90;99.90;;;;;;5015509;28;20072;-62
2023/10/09 05:37:16;;;;;;;25.10;11.70;;;13.90;99.90;;;;;;5023456;28;20037;-63
2023/10/09 05:39:43;;;;;;;25.73;11.63;;;13.90;99.90;;;;;;5018331;28;20026;-63
2023/10/09 05:42:17;;;;;;;27.17;11.43;;;13.90;99.90;;;;;;5018562;28;20557;-62
2023/10/09 05:45:44;;;;;;;20.95;11.20;;;13.90;99.90;;;;;;5021525;28;20032;-60
2023/10/09 05:47:53;;;;;;;25.80;11.90;;;13.90;99.90;;;;;;5014548;28;20048;-61
2023/10/09 06:14:04;;;;;;;24.63;12.10;;;14.10;99.90;;;;;;5022543;28;20032;-58
2023/10/09 06:16:41;;;;;;;28.80;11.98;;;14.20;99.90;;;;;;5020723;28;20480;-58
2023/10/09 06:24:17;;;;;;;23.48;10.65;;;14.40;99.90;;;;;;5018882;28;20527;-53
2023/10/09 06:29:36;;;;;;;21.75;10.55;;;14.60;99.90;;;;;;5016954;28;20396;-59
2023/10/09 06:34:45;;;;;;;18.88;9.88;;;14.70;99.90;;;;;;5019812;28;20084;-58
2023/10/09 06:37:34;;;;;;;24.15;11.07;;;14.70;99.90;;;;;;5022581;28;20108;-58
2023/10/09 06:41:01;;;;;;;18.63;10.10;;;14.70;99.90;;;;;;5017314;28;20052;-56
2023/10/09 06:42:55;;;;;;;22.33;10.43;;;14.70;99.90;;;;;;5017795;28;20096;-56
2023/10/09 06:45:21;;;;;;;25.00;9.88;;;14.70;99.90;;;;;;5020155;28;20508;-57
2023/10/09 06:48:07;;;;;;;23.85;9.43;;;14.80;99.90;;;;;;5020597;28;20041;-56
2023/10/09 06:50:56;;;;;;;19.83;10.07;;;14.80;99.90;;;;;;5018726;28;20148;-56
2023/10/09 06:53:28;;;;;;;14.05;9.13;;;14.90;99.90;;;;;;5011429;28;20022;-58
2023/10/09 06:56:05;;;;;;;21.85;9.63;;;15.00;99.90;;;;;;5015394;28;20022;-56
2023/10/09 06:58:41;;;;;;;20.63;10.18;;;15.00;99.90;;;;;;5014164;28;20032;-57
2023/10/09 07:01:25;;;;;;;16.52;9.20;;;15.10;99.90;;;;;;5015881;28;20041;-56
2023/10/09 07:03:53;;;;;;;19.85;10.15;;;15.20;99.90;;;;;;5004222;28;20018;-60
2023/10/09 07:06:23;;;;;;;26.35;10.90;;;15.20;99.90;;;;;;5021436;28;20032;-57
2023/10/09 07:12:20;;;;;;;21.63;10.20;;;15.30;99.90;;;;;;5016547;28;20030;-55
2023/10/09 07:16:58;;;;;;;17.63;9.65;;;15.40;99.90;;;;;;5013486;28;20033;-58
2023/10/09 07:19:35;;;;;;;18.15;10.32;;;15.40;99.90;;;;;;5016491;28;20029;-55
2023/10/09 07:22:04;;;;;;;27.42;10.88;;;15.40;99.90;;;;;;5018611;28;20026;-54
2023/10/09 07:24:43;;;;;;;28.88;11.07;;;15.50;99.90;;;;;;5008157;28;20137;-57
2023/10/09 07:27:13;;;;;;;30.15;11.38;;;15.50;99.90;;;;;;5018757;28;20104;-61
2023/10/09 07:29:47;;;;;;;23.92;11.10;;;15.50;99.90;;;;;;5020071;28;20059;-59
2023/10/09 07:32:20;;;;;;;23.63;11.18;;;15.60;99.90;;;;;;5012530;28;20026;-57
2023/10/09 07:34:57;;;;;;;14.90;8.68;;;15.70;99.90;;;;;;5017448;28;20041;-58
2023/10/09 07:37:35;;;;;;;24.25;10.82;;;15.70;99.90;;;;;;5024190;28;20030;-59
2023/10/09 07:40:07;;;;;;;20.27;9.13;;;15.90;99.90;;;;;;5008855;28;20474;-58
2023/10/09 07:48:02;;;;;;;27.38;10.45;;;16.10;99.90;;;;;;5018647;28;20034;-60
2023/10/09 07:51:05;;;;;;;20.90;10.00;;;16.20;99.90;;;;;;5014069;28;20483;-54
2023/10/09 07:53:26;;;;;;;21.88;9.27;;;16.40;99.90;;;;;;5020495;28;20462;-57
2023/10/09 07:55:56;;;;;;;25.02;8.73;;;16.50;99.90;;;;;;5015044;28;20030;-58
2023/10/09 07:58:26;;;;;;;17.17;7.45;;;16.60;99.90;;;;;;5020561;28;20018;-59
2023/10/09 08:03:24;;;;;;;15.25;7.18;;;16.90;99.90;;;;;;5022555;28;20039;-58
2023/10/09 08:06:06;;;;;;;24.15;7.35;;;17.00;99.90;;;;;;5016133;28;20018;-60
2023/10/09 08:14:00;;;;;;;17.83;7.32;;;17.20;99.90;;;;;;5012482;28;20064;-57
2023/10/09 08:16:36;;;;;;;14.75;6.68;;;17.30;99.90;;;;;;5017302;28;20064;-55
2023/10/09 08:19:32;;;;;;;34.42;9.70;;;17.40;99.90;;;;;;5020554;28;20040;-57
2023/10/09 08:24:57;;;;;;;32.58;9.90;;;17.40;99.90;;;;;;5042224;28;20084;-58
2023/10/09 08:33:04;;;;;;;17.85;7.47;;;17.50;99.90;;;;;;5018657;28;20045;-58
2023/10/09 08:35:32;;;;;;;17.13;7.00;;;17.70;99.90;;;;;;5016941;28;20029;-56
2023/10/09 08:38:08;;;;;;;15.32;7.30;;;17.80;99.90;;;;;;5012144;28;20033;-60
2023/10/09 08:40:39;;;;;;;17.30;7.45;;;17.80;99.90;;;;;;5014986;28;20029;-59
2023/10/09 08:43:16;;;;;;;22.05;6.85;;;17.90;99.90;;;;;;5011326;28;20021;-57
2023/10/09 08:45:51;;;;;;;19.48;7.65;;;18.00;99.90;;;;;;5011984;28;20772;-56
2023/10/09 08:48:18;;;;;;;17.80;7.13;;;18.00;99.90;;;;;;5012191;28;20276;-58
2023/10/09 08:50:47;;;;;;;24.75;7.78;;;18.00;99.90;;;;;;5014970;28;20476;-58
2023/10/09 08:53:13;;;;;;;16.60;7.60;;;18.10;99.90;;;;;;5009102;28;20022;-57
2023/10/09 08:55:40;;;;;;;22.10;7.57;;;18.10;99.90;;;;;;5018662;28;20464;-59
2023/10/09 08:58:13;;;;;;;19.27;7.10;;;18.10;99.90;;;;;;5014630;28;20092;-57
2023/10/09 09:00:43;;;;;;;17.95;6.95;;;18.20;99.90;;;;;;5016899;28;20033;-58
2023/10/09 09:03:08;;;;;;;14.05;7.50;;;18.30;99.90;;;;;;5014178;28;20037;-58
2023/10/09 09:05:35;;;;;;;17.65;7.15;;;18.40;99.90;;;;;;5019878;28;20604;-57
2023/10/09 09:08:02;;;;;;;16.98;7.47;;;18.50;99.90;;;;;;5015488;28;20030;-56
2023/10/09 09:10:35;;;;;;;13.10;6.95;;;18.50;99.90;;;;;;5014576;28;20022;-57
2023/10/09 09:13:04;;;;;;;19.88;9.20;;;18.60;99.90;;;;;;5015542;28;20032;-57
2023/10/09 09:15:32;;;;;;;49.70;10.10;;;18.60;99.90;;;;;;5010585;28;20022;-57
2023/10/09 09:18:16;;;;;;;51.50;10.07;;;18.60;99.90;;;;;;5009498;28;20049;-55
2023/10/09 09:20:46;;;;;;;152.70;20.25;;;18.70;99.90;;;;;;5013718;28;20087;-56
2023/10/09 09:23:12;;;;;;;23.55;7.43;;;18.80;99.90;;;;;;5015497;28;20022;-57
2023/10/09 09:25:45;;;;;;;22.10;7.57;;;18.80;99.90;;;;;;5017246;28;20017;-60
2023/10/09 09:28:12;;;;;;;18.97;6.83;;;18.80;99.90;;;;;;5017159;28;20394;-58
2023/10/09 09:30:40;;;;;;;14.57;6.93;;;18.90;99.90;;;;;;5012240;28;20026;-58
2023/10/09 09:33:20;;;;;;;19.50;6.40;;;18.90;99.90;;;;;;5015107;28;20017;-53
2023/10/09 09:36:04;;;;;;;19.58;6.22;;;19.10;99.90;;;;;;5016147;28;20500;-53
2023/10/09 09:38:50;;;;;;;32.30;7.38;;;19.10;99.90;;;;;;5008244;28;20034;-56
2023/10/09 09:41:25;;;;;;;17.08;6.95;;;19.20;99.90;;;;;;5025978;28;20037;-62
2023/10/09 09:44:01;;;;;;;18.10;7.72;;;19.30;99.90;;;;;;5015719;28;20487;-57
2023/10/09 09:46:34;;;;;;;17.35;6.80;;;19.50;99.90;;;;;;5013796;28;20057;-61
2023/10/09 09:49:16;;;;;;;14.15;6.45;;;19.40;99.90;;;;;;5014362;28;20025;-57
2023/10/09 09:51:46;;;;;;;13.55;6.20;;;19.50;99.90;;;;;;5012042;28;20104;-57
2023/10/09 09:54:15;;;;;;;14.98;6.50;;;19.70;99.90;;;;;;5020202;28;20069;-54
2023/10/09 09:56:44;;;;;;;14.55;6.60;;;19.80;99.90;;;;;;5020467;28;20422;-58
2023/10/09 09:59:21;;;;;;;12.07;5.97;;;19.80;99.90;;;;;;5013419;28;20026;-60
2023/10/09 10:02:00;;;;;;;18.05;5.95;;;19.90;99.90;;;;;;5022575;28;20022;-55
2023/10/09 10:04:29;;;;;;;12.70;5.65;;;20.00;99.90;;;;;;5017967;28;20033;-60
2023/10/09 10:07:09;;;;;;;17.20;6.72;;;20.20;99.90;;;;;;5019603;28;20439;-56
2023/10/09 10:09:44;;;;;;;15.65;5.75;;;20.40;99.90;;;;;;5013489;28;20247;-57
2023/10/09 10:12:11;;;;;;;15.02;6.15;;;20.60;99.90;;;;;;5019024;28;20529;-61
2023/10/09 10:18:00;;;;;;;16.63;6.28;;;20.70;99.90;;;;;;5022733;28;20109;-56
2023/10/09 10:20:26;;;;;;;21.40;6.72;;;21.00;99.90;;;;;;5018513;28;20036;-55
2023/10/09 10:23:25;;;;;;;15.68;7.80;;;21.00;99.90;;;;;;5022032;28;20092;-56
2023/10/09 10:25:59;;;;;;;11.57;6.00;;;21.10;99.90;;;;;;5014880;28;20427;-56
2023/10/09 10:28:28;;;;;;;;;;;21.20;99.90;;;;;;5017235;28;20036;-57
2023/10/09 10:30:55;;;;;;;16.38;6.65;;;21.20;99.90;;;;;;5018596;28;19940;-58
2023/10/09 10:33:22;;;;;;;16.75;5.57;;;21.30;99.90;;;;;;5017122;28;20037;-60
2023/10/09 10:35:52;;;;;;;14.43;6.35;;;21.30;99.90;;;;;;5023844;28;20084;-58
2023/10/09 10:38:38;;;;;;;12.10;6.38;;;21.30;99.90;;;;;;5024765;28;20026;-59
2023/10/09 10:41:17;;;;;;;14.20;5.88;;;21.30;99.90;;;;;;5012973;28;20017;-55
2023/10/09 10:46:34;;;;;;;17.58;6.97;;;21.60;99.90;;;;;;5019733;28;20064;-59
2023/10/09 10:49:14;;;;;;;19.98;6.75;;;21.50;99.90;;;;;;5018188;28;20464;-58
2023/10/09 10:51:40;;;;;;;13.00;5.93;;;21.40;99.90;;;;;;5021139;28;20149;-61
2023/10/09 10:55:17;;;;;;;16.45;6.20;;;21.60;99.90;;;;;;5021823;28;20504;-56
2023/10/09 10:57:04;;;;;;;15.45;5.60;;;21.60;99.90;;;;;;5022469;28;20209;-60
2023/10/09 10:59:41;;;;;;;15.27;5.78;;;21.70;99.90;;;;;;5022102;28;20033;-60
2023/10/09 11:04:41;;;;;;;14.98;5.55;;;21.80;99.90;;;;;;5028030;28;20056;-58
2023/10/09 11:07:24;;;;;;;12.98;5.13;;;21.90;99.90;;;;;;5028748;28;20032;-59
2023/10/09 11:10:27;;;;;;;10.77;5.38;;;21.80;99.90;;;;;;5017330;28;20530;-57
2023/10/09 11:12:45;;;;;;;13.32;5.68;;;22.00;99.90;;;;;;5024997;28;20049;-60
2023/10/09 11:26:25;;;;;;;12.15;5.25;;;22.20;99.90;;;;;;5018230;28;20538;-56
2023/10/09 11:32:02;;;;;;;18.65;5.63;;;22.30;99.90;;;;;;5026631;28;20060;-57
2023/10/09 11:34:31;;;;;;;10.30;4.60;;;22.40;99.90;;;;;;5016148;28;20570;-52
2023/10/09 11:37:02;;;;;;;13.20;4.85;;;22.40;99.90;;;;;;5015185;28;20051;-61
2023/10/09 11:39:36;;;;;;;10.98;4.68;;;22.50;99.90;;;;;;5022040;28;20026;-58
2023/10/09 11:42:05;;;;;;;13.98;4.70;;;22.50;99.90;;;;;;5018187;28;20068;-57
2023/10/09 11:44:39;;;;;;;10.75;4.30;;;22.60;99.90;;;;;;5012859;28;20029;-59
2023/10/09 11:52:36;;;;;;;13.48;4.90;;;22.60;99.90;;;;;;5017625;28;20065;-57
2023/10/09 11:55:16;;;;;;;9.25;4.45;;;22.50;99.90;;;;;;5012813;28;20119;-62
2023/10/09 11:57:41;;;;;;;8.63;4.05;;;22.50;99.90;;;;;;5022480;28;20111;-57
2023/10/09 12:00:24;;;;;;;9.57;3.88;;;22.50;99.90;;;;;;5017981;28;20033;-57
2023/10/09 12:02:50;;;;;;;13.32;4.80;;;22.60;99.90;;;;;;5016735;28;20017;-54
2023/10/09 12:05:18;;;;;;;13.18;4.38;;;22.60;99.90;;;;;;5021130;28;20048;-56
2023/10/09 12:07:54;;;;;;;15.68;4.50;;;22.50;99.90;;;;;;5024786;28;20374;-60
2023/10/09 12:10:25;;;;;;;13.75;4.82;;;22.40;99.90;;;;;;5020392;28;20418;-58
2023/10/09 12:12:57;;;;;;;15.45;4.82;;;22.40;99.90;;;;;;5016363;28;21347;-59
2023/10/09 12:15:23;;;;;;;14.30;5.03;;;22.50;99.90;;;;;;5015290;28;21167;-60
2023/10/09 12:17:49;;;;;;;11.18;4.32;;;22.50;99.90;;;;;;5020109;28;20033;-59
2023/10/09 12:20:50;;;;;;;11.93;5.25;;;22.60;99.90;;;;;;5019988;28;20473;-59
2023/10/09 12:23:07;;;;;;;8.40;4.35;;;22.60;99.90;;;;;;5015534;28;20091;-57
2023/10/09 12:25:35;;;;;;;10.93;4.63;;;22.60;99.90;;;;;;5015674;28;20018;-59
2023/10/09 12:28:02;;;;;;;9.75;4.97;;;22.60;99.90;;;;;;5020012;28;20025;-62
2023/10/09 12:30:29;;;;;;;11.90;4.68;;;22.60;99.90;;;;;;5016021;28;20076;-56
2023/10/09 12:32:57;;;;;;;10.45;4.15;;;22.50;99.90;;;;;;5018190;28;20416;-56
2023/10/09 12:35:27;;;;;;;23.15;5.43;;;22.50;99.90;;;;;;5020437;28;20033;-55
2023/10/09 12:37:54;;;;;;;11.15;4.50;;;22.60;99.90;;;;;;5020237;28;20045;-59
2023/10/09 12:40:29;;;;;;;11.13;4.70;;;22.60;99.90;;;;;;5023366;28;20017;-59
2023/10/09 12:42:58;;;;;;;15.40;5.03;;;22.50;99.90;;;;;;5021664;28;20021;-61
2023/10/09 12:45:32;;;;;;;10.82;4.65;;;22.40;99.90;;;;;;5014504;28;20055;-59
2023/10/09 12:47:59;;;;;;;10.63;4.57;;;22.40;99.90;;;;;;5013052;28;20022;-53
2023/10/09 12:50:28;;;;;;;12.18;5.00;;;22.40;99.90;;;;;;5018896;28;20033;-61
2023/10/09 12:53:06;;;;;;;21.60;5.13;;;22.30;99.90;;;;;;5019791;28;20506;-58
2023/10/09 12:55:47;;;;;;;15.32;5.13;;;22.30;99.90;;;;;;5017750;28;20087;-56
2023/10/09 12:58:15;;;;;;;13.38;5.40;;;22.30;99.90;;;;;;5019369;28;20021;-58
2023/10/09 13:00:48;;;;;;;9.88;4.65;;;22.20;99.90;;;;;;5018065;28;20061;-59
2023/10/09 13:03:17;;;;;;;20.05;5.93;;;22.20;99.90;;;;;;5024744;28;20404;-60
2023/10/09 13:05:56;;;;;;;12.45;5.43;;;22.10;99.90;;;;;;5018533;28;20450;-58
2023/10/09 13:08:24;;;;;;;15.95;5.05;;;22.20;99.90;;;;;;5026415;28;20032;-56
2023/10/09 13:10:58;;;;;;;11.50;5.03;;;22.20;99.90;;;;;;5022873;28;20036;-59
2023/10/09 13:13:40;;;;;;;12.32;4.28;;;22.10;99.90;;;;;;5023114;28;20087;-60
2023/10/09 13:16:12;;;;;;;9.57;4.45;;;22.10;99.90;;;;;;5014835;28;20033;-61
2023/10/09 13:18:45;;;;;;;12.07;5.50;;;22.10;99.90;;;;;;5024592;28;20099;-56
2023/10/09 13:21:12;;;;;;;8.55;4.35;;;22.00;99.90;;;;;;5021861;28;20034;-57
2023/10/09 13:23:39;;;;;;;17.30;5.03;;;22.00;99.90;;;;;;5021887;28;20092;-59
2023/10/09 13:28:53;;;;;;;13.07;5.05;;;22.10;99.90;;;;;;5016799;28;20056;-55
2023/10/09 13:31:20;;;;;;;15.80;5.32;;;22.10;99.90;;;;;;5024593;28;20028;-61
2023/10/09 13:33:47;;;;;;;10.95;4.78;;;22.00;99.90;;;;;;5019558;28;20029;-58
2023/10/09 13:36:26;;;;;;;10.43;5.07;;;22.00;99.90;;;;;;5014519;28;20400;-59
2023/10/09 13:38:56;;;;;;;14.77;5.25;;;22.10;99.90;;;;;;5021696;28;20104;-61
2023/10/09 13:41:30;;;;;;;23.40;5.22;;;22.10;99.90;;;;;;5022081;28;20085;-59
2023/10/09 13:43:59;;;;;;;11.07;4.72;;;22.20;99.90;;;;;;5028365;28;20536;-59
2023/10/09 13:46:24;;;;;;;12.02;5.15;;;22.20;99.90;;;;;;5026351;28;20538;-57
2023/10/09 13:48:52;;;;;;;13.27;5.22;;;22.20;99.90;;;;;;5024951;28;20029;-58
2023/10/09 13:51:18;;;;;;;14.00;5.03;;;22.20;99.90;;;;;;5020384;28;20037;-56
2023/10/09 13:53:47;;;;;;;16.30;4.53;;;22.20;99.90;;;;;;5014282;28;20026;-57
2023/10/09 13:56:21;;;;;;;9.98;4.93;;;22.10;99.90;;;;;;5034659;28;20057;-59
2023/10/09 13:58:51;;;;;;;10.32;4.68;;;22.20;99.90;;;;;;5022773;28;20554;-59
2023/10/09 14:01:26;;;;;;;15.30;4.80;;;22.20;99.90;;;;;;5026011;28;20057;-59
2023/10/09 14:03:59;;;;;;;18.17;5.68;;;22.20;99.90;;;;;;5018278;28;20515;-58
2023/10/09 14:06:32;;;;;;;14.75;5.68;;;22.10;99.90;;;;;;5019674;28;20102;-57
2023/10/09 14:09:00;;;;;;;14.23;5.07;;;22.10;99.90;;;;;;5019437;28;20026;-57
2023/10/09 14:11:26;;;;;;;10.05;5.45;;;22.10;99.90;;;;;;5023899;28;20026;-59
2023/10/09 14:13:54;;;;;;;8.95;5.22;;;22.10;99.90;;;;;;5024958;28;20028;-57
2023/10/09 14:16:28;;;;;;;13.68;5.30;;;22.10;99.90;;;;;;5025793;28;20038;-58
2023/10/09 14:18:57;;;;;;;14.38;5.75;;;22.10;99.90;;;;;;5029796;28;20037;-59
2023/10/09 14:21:30;;;;;;;16.23;5.32;;;22.00;99.90;;;;;;5027941;28;20013;-60
2023/10/09 14:23:57;;;;;;;11.50;4.72;;;22.00;99.90;;;;;;5023593;28;20029;-58
2023/10/09 14:26:26;;;;;;;12.73;5.20;;;22.00;99.90;;;;;;5018254;28;20109;-55
2023/10/09 14:28:53;;;;;;;10.80;4.90;;;22.10;99.90;;;;;;5028171;28;20030;-58
2023/10/09 14:31:26;;;;;;;11.05;5.07;;;22.00;99.90;;;;;;5024384;28;20155;-55
2023/10/09 14:33:53;;;;;;;11.50;5.38;;;22.00;99.90;;;;;;5027780;28;20032;-60
2023/10/09 14:36:21;;;;;;;12.80;5.85;;;22.00;99.90;;;;;;5028800;28;20017;-59
2023/10/09 14:38:52;;;;;;;12.88;5.00;;;21.90;99.90;;;;;;5022474;28;20022;-59
2023/10/09 14:41:25;;;;;;;16.40;5.97;;;22.00;99.90;;;;;;5020482;28;20037;-59
2023/10/09 14:43:52;;;;;;;12.23;5.47;;;22.00;99.90;;;;;;5023378;28;20014;-59
2023/10/09 14:46:23;;;;;;;10.75;5.22;;;21.90;99.90;;;;;;5029610;28;20049;-56
2023/10/09 14:48:49;;;;;;;11.57;5.40;;;21.90;99.90;;;;;;5024604;28;20034;-59
2023/10/09 14:51:15;;;;;;;16.25;6.07;;;21.90;99.90;;;;;;5016247;28;20040;-57
2023/10/09 14:53:40;;;;;;;18.23;5.82;;;21.80;99.90;;;;;;5017041;28;20120;-61
2023/10/09 14:56:09;;;;;;;13.05;5.90;;;21.90;99.90;;;;;;5022287;28;20044;-56
2023/10/09 14:58:35;;;;;;;13.10;6.30;;;21.80;99.90;;;;;;5023850;28;20045;-57
2023/10/09 15:01:09;;;;;;;13.43;5.70;;;21.70;99.90;;;;;;5023331;28;20033;-53
2023/10/09 15:03:37;;;;;;;13.90;5.93;;;21.70;99.90;;;;;;5016808;28;20049;-61
2023/10/09 15:06:03;;;;;;;15.38;6.20;;;21.70;99.90;;;;;;5027029;28;20385;-58
2023/10/09 15:08:29;;;;;;;14.75;6.20;;;21.70;99.90;;;;;;5020483;28;20025;-57
2023/10/09 15:10:55;;;;;;;14.80;6.32;;;21.70;99.90;;;;;;5019832;28;20033;-59
2023/10/09 15:13:27;;;;;;;14.63;6.13;;;21.60;99.90;;;;;;5020368;28;20807;-61
2023/10/09 15:15:54;;;;;;;16.35;6.25;;;21.60;99.90;;;;;;5015037;28;20369;-59
2023/10/09 15:18:21;;;;;;;13.68;6.15;;;21.60;99.90;;;;;;5024126;28;20026;-59
2023/10/09 15:20:48;;;;;;;15.40;6.78;;;21.50;99.90;;;;;;5018634;28;20030;-59